sensor_id;sensor_type;location;lat;lon;timestamp;P1;durP1;ratioP1;P2;durP2;ratioP2
22111;SDS011;11222;50.872;4.312;2023-04-24T00:01:47;27.85;;;15.48;;
22111;SDS011;11222;50.872;4.312;2023-04-24T00:04:13;25.48;;;15.32;;
22111;SDS011;11222;50.872;4.312;2023-04-24T00:06:41;25.45;;;15.15;;
22111;SDS011;11222;50.872;4.312;2023-04-24T00:09:08;23.30;;;16.33;;
22111;SDS011;11222;50.872;4.312;2023-04-24T00:11:35;26.55;;;15.05;;
22111;SDS011;11222;50.872;4.312;2023-04-24T00:14:01;21.13;;;14.32;;
22111;SDS011;11222;50.872;4.312;2023-04-24T00:16:27;31.02;;;15.65;;
22111;SDS011;11222;50.872;4.312;2023-04-24T00:18:53;25.55;;;15.55;;
22111;SDS011;11222;50.872;4.312;2023-04-24T00:21:19;30.20;;;15.50;;
22111;SDS011;11222;50.872;4.312;2023-04-24T00:23:46;25.63;;;15.60;;
22111;SDS011;11222;50.872;4.312;2023-04-24T00:26:12;25.40;;;15.10;;
22111;SDS011;11222;50.872;4.312;2023-04-24T00:28:38;24.75;;;15.75;;
22111;SDS011;11222;50.872;4.312;2023-04-24T00:31:03;26.08;;;15.75;;
22111;SDS011;11222;50.872;4.312;2023-04-24T00:33:29;25.48;;;15.30;;
22111;SDS011;11222;50.872;4.312;2023-04-24T00:35:55;26.02;;;15.90;;
22111;SDS011;11222;50.872;4.312;2023-04-24T00:38:21;25.15;;;15.80;;
22111;SDS011;11222;50.872;4.312;2023-04-24T00:40:47;29.35;;;16.27;;
22111;SDS011;11222;50.872;4.312;2023-04-24T00:43:14;22.48;;;16.00;;
22111;SDS011;11222;50.872;4.312;2023-04-24T00:45:40;27.45;;;16.10;;
22111;SDS011;11222;50.872;4.312;2023-04-24T00:48:06;25.83;;;16.55;;
22111;SDS011;11222;50.872;4.312;2023-04-24T00:50:32;27.50;;;15.95;;
22111;SDS011;11222;50.872;4.312;2023-04-24T00:53:00;26.15;;;15.82;;
22111;SDS011;11222;50.872;4.312;2023-04-24T00:55:26;26.33;;;15.60;;
22111;SDS011;11222;50.872;4.312;2023-04-24T00:57:52;29.67;;;16.92;;
22111;SDS011;11222;50.872;4.312;2023-04-24T01:00:18;28.30;;;16.92;;
22111;SDS011;11222;50.872;4.312;2023-04-24T01:02:44;28.42;;;16.25;;
22111;SDS011;11222;50.872;4.312;2023-04-24T01:05:14;28.90;;;17.40;;
22111;SDS011;11222;50.872;4.312;2023-04-24T01:07:40;25.40;;;16.45;;
22111;SDS011;11222;50.872;4.312;2023-04-24T01:10:10;28.73;;;17.02;;
22111;SDS011;11222;50.872;4.312;2023-04-24T01:12:36;27.45;;;17.77;;
22111;SDS011;11222;50.872;4.312;2023-04-24T01:15:02;31.50;;;17.85;;
22111;SDS011;11222;50.872;4.312;2023-04-24T01:17:29;31.92;;;17.95;;
22111;SDS011;11222;50.872;4.312;2023-04-24T01:19:56;28.98;;;17.30;;
22111;SDS011;11222;50.872;4.312;2023-04-24T01:22:22;31.55;;;17.13;;
22111;SDS011;11222;50.872;4.312;2023-04-24T01:24:48;26.52;;;17.00;;
22111;SDS011;11222;50.872;4.312;2023-04-24T01:27:13;28.85;;;17.25;;
22111;SDS011;11222;50.872;4.312;2023-04-24T01:29:40;29.73;;;17.80;;
22111;SDS011;11222;50.872;4.312;2023-04-24T01:32:06;27.33;;;16.10;;
22111;SDS011;11222;50.872;4.312;2023-04-24T01:34:32;28.08;;;17.58;;
22111;SDS011;11222;50.872;4.312;2023-04-24T01:36:59;28.48;;;16.35;;
22111;SDS011;11222;50.872;4.312;2023-04-24T01:39:25;26.65;;;16.08;;
22111;SDS011;11222;50.872;4.312;2023-04-24T01:41:53;25.25;;;15.20;;
22111;SDS011;11222;50.872;4.312;2023-04-24T01:44:19;24.63;;;15.60;;
22111;SDS011;11222;50.872;4.312;2023-04-24T01:46:45;24.00;;;13.88;;
22111;SDS011;11222;50.872;4.312;2023-04-24T01:49:11;22.95;;;14.27;;
22111;SDS011;11222;50.872;4.312;2023-04-24T01:51:37;19.10;;;13.38;;
22111;SDS011;11222;50.872;4.312;2023-04-24T01:54:02;22.08;;;12.75;;
22111;SDS011;11222;50.872;4.312;2023-04-24T01:56:28;18.17;;;13.23;;
22111;SDS011;11222;50.872;4.312;2023-04-24T01:58:55;22.20;;;13.57;;
22111;SDS011;11222;50.872;4.312;2023-04-24T02:01:23;23.48;;;14.10;;
22111;SDS011;11222;50.872;4.312;2023-04-24T02:03:49;23.65;;;13.95;;
22111;SDS011;11222;50.872;4.312;2023-04-24T02:06:15;23.65;;;14.32;;
22111;SDS011;11222;50.872;4.312;2023-04-24T02:08:41;24.92;;;14.95;;
22111;SDS011;11222;50.872;4.312;2023-04-24T02:11:08;23.30;;;14.93;;
22111;SDS011;11222;50.872;4.312;2023-04-24T02:13:34;24.63;;;15.18;;
22111;SDS011;11222;50.872;4.312;2023-04-24T02:16:00;21.55;;;14.98;;
22111;SDS011;11222;50.872;4.312;2023-04-24T02:18:26;25.58;;;14.50;;
22111;SDS011;11222;50.872;4.312;2023-04-24T02:20:51;30.48;;;16.08;;
22111;SDS011;11222;50.872;4.312;2023-04-24T02:23:17;22.40;;;14.82;;
22111;SDS011;11222;50.872;4.312;2023-04-24T02:25:43;21.73;;;14.50;;
22111;SDS011;11222;50.872;4.312;2023-04-24T02:28:09;22.90;;;14.98;;
22111;SDS011;11222;50.872;4.312;2023-04-24T02:30:34;20.35;;;12.95;;
22111;SDS011;11222;50.872;4.312;2023-04-24T02:33:00;20.92;;;13.90;;
22111;SDS011;11222;50.872;4.312;2023-04-24T02:35:26;20.10;;;13.90;;
22111;SDS011;11222;50.872;4.312;2023-04-24T02:37:51;21.73;;;14.10;;
22111;SDS011;11222;50.872;4.312;2023-04-24T02:40:17;24.23;;;14.05;;
22111;SDS011;11222;50.872;4.312;2023-04-24T02:42:43;23.65;;;15.00;;
22111;SDS011;11222;50.872;4.312;2023-04-24T02:45:08;23.80;;;15.13;;
22111;SDS011;11222;50.872;4.312;2023-04-24T02:47:35;26.27;;;14.98;;
22111;SDS011;11222;50.872;4.312;2023-04-24T02:50:01;24.63;;;14.60;;
22111;SDS011;11222;50.872;4.312;2023-04-24T02:52:27;23.83;;;14.25;;
22111;SDS011;11222;50.872;4.312;2023-04-24T02:54:53;23.38;;;15.82;;
22111;SDS011;11222;50.872;4.312;2023-04-24T02:57:19;22.65;;;14.07;;
22111;SDS011;11222;50.872;4.312;2023-04-24T02:59:45;24.85;;;14.23;;
22111;SDS011;11222;50.872;4.312;2023-04-24T03:02:10;24.55;;;14.30;;
22111;SDS011;11222;50.872;4.312;2023-04-24T03:04:36;21.80;;;14.70;;
22111;SDS011;11222;50.872;4.312;2023-04-24T03:07:02;24.75;;;13.88;;
22111;SDS011;11222;50.872;4.312;2023-04-24T03:09:27;22.20;;;14.95;;
22111;SDS011;11222;50.872;4.312;2023-04-24T03:11:53;21.17;;;14.77;;
22111;SDS011;11222;50.872;4.312;2023-04-24T03:14:18;17.50;;;11.70;;
22111;SDS011;11222;50.872;4.312;2023-04-24T03:16:44;17.02;;;12.50;;
22111;SDS011;11222;50.872;4.312;2023-04-24T03:19:10;21.25;;;12.75;;
22111;SDS011;11222;50.872;4.312;2023-04-24T03:21:35;19.60;;;13.20;;
22111;SDS011;11222;50.872;4.312;2023-04-24T03:24:05;19.23;;;12.48;;
22111;SDS011;11222;50.872;4.312;2023-04-24T03:26:34;23.00;;;13.38;;
22111;SDS011;11222;50.872;4.312;2023-04-24T03:29:00;18.55;;;12.90;;
22111;SDS011;11222;50.872;4.312;2023-04-24T03:31:26;18.02;;;12.40;;
22111;SDS011;11222;50.872;4.312;2023-04-24T03:33:52;18.45;;;12.25;;
22111;SDS011;11222;50.872;4.312;2023-04-24T03:36:17;20.25;;;12.20;;
22111;SDS011;11222;50.872;4.312;2023-04-24T03:38:44;18.25;;;13.25;;
22111;SDS011;11222;50.872;4.312;2023-04-24T03:41:10;16.98;;;11.60;;
22111;SDS011;11222;50.872;4.312;2023-04-24T03:43:36;19.67;;;12.40;;
22111;SDS011;11222;50.872;4.312;2023-04-24T03:46:03;17.52;;;11.68;;
22111;SDS011;11222;50.872;4.312;2023-04-24T03:48:28;20.13;;;12.48;;
22111;SDS011;11222;50.872;4.312;2023-04-24T03:50:54;16.67;;;12.40;;
22111;SDS011;11222;50.872;4.312;2023-04-24T03:53:20;14.90;;;11.68;;
22111;SDS011;11222;50.872;4.312;2023-04-24T03:55:46;17.52;;;11.15;;
22111;SDS011;11222;50.872;4.312;2023-04-24T03:58:12;17.33;;;10.90;;
22111;SDS011;11222;50.872;4.312;2023-04-24T04:00:39;14.30;;;9.70;;
22111;SDS011;11222;50.872;4.312;2023-04-24T04:03:05;13.85;;;9.07;;
22111;SDS011;11222;50.872;4.312;2023-04-24T04:05:31;13.70;;;9.85;;
22111;SDS011;11222;50.872;4.312;2023-04-24T04:07:57;11.73;;;8.75;;
22111;SDS011;11222;50.872;4.312;2023-04-24T04:10:22;13.65;;;9.77;;
22111;SDS011;11222;50.872;4.312;2023-04-24T04:12:48;13.48;;;9.60;;
22111;SDS011;11222;50.872;4.312;2023-04-24T04:15:14;15.07;;;9.98;;
22111;SDS011;11222;50.872;4.312;2023-04-24T04:17:40;13.70;;;9.77;;
22111;SDS011;11222;50.872;4.312;2023-04-24T04:20:05;13.88;;;9.52;;
22111;SDS011;11222;50.872;4.312;2023-04-24T04:22:36;13.05;;;9.07;;
22111;SDS011;11222;50.872;4.312;2023-04-24T04:25:07;13.32;;;8.95;;
22111;SDS011;11222;50.872;4.312;2023-04-24T04:27:33;13.73;;;9.10;;
22111;SDS011;11222;50.872;4.312;2023-04-24T04:29:59;15.20;;;9.10;;
22111;SDS011;11222;50.872;4.312;2023-04-24T04:32:33;12.35;;;8.77;;
22111;SDS011;11222;50.872;4.312;2023-04-24T04:35:02;15.45;;;8.55;;
22111;SDS011;11222;50.872;4.312;2023-04-24T04:37:37;11.48;;;8.52;;
22111;SDS011;11222;50.872;4.312;2023-04-24T04:40:03;15.10;;;9.35;;
22111;SDS011;11222;50.872;4.312;2023-04-24T04:42:31;17.17;;;9.57;;
22111;SDS011;11222;50.872;4.312;2023-04-24T04:44:59;15.48;;;10.15;;
22111;SDS011;11222;50.872;4.312;2023-04-24T04:47:25;19.27;;;11.02;;
22111;SDS011;11222;50.872;4.312;2023-04-24T04:49:53;19.63;;;11.77;;
22111;SDS011;11222;50.872;4.312;2023-04-24T04:52:19;22.80;;;11.50;;
22111;SDS011;11222;50.872;4.312;2023-04-24T04:54:49;20.95;;;12.98;;
22111;SDS011;11222;50.872;4.312;2023-04-24T04:57:15;23.08;;;12.45;;
22111;SDS011;11222;50.872;4.312;2023-04-24T04:59:41;24.30;;;13.32;;
22111;SDS011;11222;50.872;4.312;2023-04-24T05:02:07;21.13;;;13.48;;
22111;SDS011;11222;50.872;4.312;2023-04-24T05:04:32;23.80;;;14.05;;
22111;SDS011;11222;50.872;4.312;2023-04-24T05:06:58;21.63;;;14.05;;
22111;SDS011;11222;50.872;4.312;2023-04-24T05:09:24;23.85;;;14.93;;
22111;SDS011;11222;50.872;4.312;2023-04-24T05:11:52;23.90;;;13.75;;
22111;SDS011;11222;50.872;4.312;2023-04-24T05:14:18;22.90;;;14.57;;
22111;SDS011;11222;50.872;4.312;2023-04-24T05:16:44;22.30;;;14.55;;
22111;SDS011;11222;50.872;4.312;2023-04-24T05:19:10;22.40;;;14.85;;
22111;SDS011;11222;50.872;4.312;2023-04-24T05:21:37;26.73;;;15.40;;
22111;SDS011;11222;50.872;4.312;2023-04-24T05:24:04;23.70;;;14.70;;
22111;SDS011;11222;50.872;4.312;2023-04-24T05:26:30;23.33;;;14.82;;
22111;SDS011;11222;50.872;4.312;2023-04-24T05:28:56;24.15;;;14.77;;
22111;SDS011;11222;50.872;4.312;2023-04-24T05:31:21;27.65;;;15.00;;
22111;SDS011;11222;50.872;4.312;2023-04-24T05:33:47;23.92;;;14.80;;
22111;SDS011;11222;50.872;4.312;2023-04-24T05:36:13;24.30;;;14.43;;
22111;SDS011;11222;50.872;4.312;2023-04-24T05:38:38;26.63;;;15.23;;
22111;SDS011;11222;50.872;4.312;2023-04-24T05:41:04;25.73;;;14.35;;
22111;SDS011;11222;50.872;4.312;2023-04-24T05:43:30;25.60;;;14.75;;
22111;SDS011;11222;50.872;4.312;2023-04-24T05:45:56;26.45;;;16.33;;
22111;SDS011;11222;50.872;4.312;2023-04-24T05:48:21;23.73;;;15.52;;
22111;SDS011;11222;50.872;4.312;2023-04-24T05:50:48;23.10;;;15.40;;
22111;SDS011;11222;50.872;4.312;2023-04-24T05:53:13;29.02;;;15.57;;
22111;SDS011;11222;50.872;4.312;2023-04-24T05:55:39;29.40;;;16.05;;
22111;SDS011;11222;50.872;4.312;2023-04-24T05:58:05;28.05;;;16.15;;
22111;SDS011;11222;50.872;4.312;2023-04-24T06:00:31;26.00;;;14.90;;
22111;SDS011;11222;50.872;4.312;2023-04-24T06:02:57;23.52;;;14.15;;
22111;SDS011;11222;50.872;4.312;2023-04-24T06:05:23;25.27;;;14.25;;
22111;SDS011;11222;50.872;4.312;2023-04-24T06:07:50;26.70;;;15.88;;
22111;SDS011;11222;50.872;4.312;2023-04-24T06:10:16;29.48;;;15.82;;
22111;SDS011;11222;50.872;4.312;2023-04-24T06:12:41;26.63;;;15.27;;
22111;SDS011;11222;50.872;4.312;2023-04-24T06:15:07;20.52;;;13.57;;
22111;SDS011;11222;50.872;4.312;2023-04-24T06:17:33;26.15;;;14.48;;
22111;SDS011;11222;50.872;4.312;2023-04-24T06:19:59;24.73;;;16.83;;
22111;SDS011;11222;50.872;4.312;2023-04-24T06:22:25;27.80;;;15.65;;
22111;SDS011;11222;50.872;4.312;2023-04-24T06:24:50;27.02;;;15.13;;
22111;SDS011;11222;50.872;4.312;2023-04-24T06:27:16;31.20;;;16.25;;
22111;SDS011;11222;50.872;4.312;2023-04-24T06:29:42;26.40;;;16.52;;
22111;SDS011;11222;50.872;4.312;2023-04-24T06:32:07;30.38;;;16.83;;
22111;SDS011;11222;50.872;4.312;2023-04-24T06:34:33;31.15;;;17.27;;
22111;SDS011;11222;50.872;4.312;2023-04-24T06:37:00;26.60;;;17.40;;
22111;SDS011;11222;50.872;4.312;2023-04-24T06:39:26;32.92;;;18.83;;
22111;SDS011;11222;50.872;4.312;2023-04-24T06:41:51;32.88;;;19.00;;
22111;SDS011;11222;50.872;4.312;2023-04-24T06:44:17;41.47;;;19.98;;
22111;SDS011;11222;50.872;4.312;2023-04-24T06:46:43;35.10;;;18.58;;
22111;SDS011;11222;50.872;4.312;2023-04-24T06:49:09;36.20;;;19.38;;
22111;SDS011;11222;50.872;4.312;2023-04-24T06:51:34;34.85;;;18.73;;
22111;SDS011;11222;50.872;4.312;2023-04-24T06:54:00;35.20;;;18.40;;
22111;SDS011;11222;50.872;4.312;2023-04-24T06:56:26;33.28;;;18.80;;
22111;SDS011;11222;50.872;4.312;2023-04-24T06:58:54;33.85;;;18.90;;
22111;SDS011;11222;50.872;4.312;2023-04-24T07:01:20;37.15;;;19.17;;
22111;SDS011;11222;50.872;4.312;2023-04-24T07:03:45;34.25;;;19.50;;
22111;SDS011;11222;50.872;4.312;2023-04-24T07:06:11;34.80;;;19.35;;
22111;SDS011;11222;50.872;4.312;2023-04-24T07:08:37;34.58;;;20.67;;
22111;SDS011;11222;50.872;4.312;2023-04-24T07:11:04;34.08;;;18.30;;
22111;SDS011;11222;50.872;4.312;2023-04-24T07:13:30;34.50;;;18.80;;
22111;SDS011;11222;50.872;4.312;2023-04-24T07:15:56;30.30;;;17.23;;
22111;SDS011;11222;50.872;4.312;2023-04-24T07:18:22;29.40;;;16.58;;
22111;SDS011;11222;50.872;4.312;2023-04-24T07:20:47;29.48;;;14.65;;
22111;SDS011;11222;50.872;4.312;2023-04-24T07:23:15;24.60;;;14.80;;
22111;SDS011;11222;50.872;4.312;2023-04-24T07:25:41;30.13;;;15.32;;
22111;SDS011;11222;50.872;4.312;2023-04-24T07:28:07;26.13;;;14.48;;
22111;SDS011;11222;50.872;4.312;2023-04-24T07:30:32;27.23;;;14.25;;
22111;SDS011;11222;50.872;4.312;2023-04-24T07:32:58;24.30;;;13.60;;
22111;SDS011;11222;50.872;4.312;2023-04-24T07:35:25;24.40;;;13.73;;
22111;SDS011;11222;50.872;4.312;2023-04-24T07:37:52;24.55;;;12.38;;
22111;SDS011;11222;50.872;4.312;2023-04-24T07:40:18;21.00;;;10.88;;
22111;SDS011;11222;50.872;4.312;2023-04-24T07:42:45;21.75;;;10.90;;
22111;SDS011;11222;50.872;4.312;2023-04-24T07:45:13;22.50;;;11.05;;
22111;SDS011;11222;50.872;4.312;2023-04-24T07:47:39;18.90;;;11.02;;
22111;SDS011;11222;50.872;4.312;2023-04-24T07:50:08;22.85;;;11.82;;
22111;SDS011;11222;50.872;4.312;2023-04-24T07:52:35;25.80;;;14.05;;
22111;SDS011;11222;50.872;4.312;2023-04-24T07:55:01;26.25;;;14.13;;
22111;SDS011;11222;50.872;4.312;2023-04-24T07:57:27;29.00;;;15.25;;
22111;SDS011;11222;50.872;4.312;2023-04-24T07:59:53;23.20;;;14.55;;
22111;SDS011;11222;50.872;4.312;2023-04-24T08:02:19;26.05;;;14.80;;
22111;SDS011;11222;50.872;4.312;2023-04-24T08:04:46;23.17;;;11.98;;
22111;SDS011;11222;50.872;4.312;2023-04-24T08:07:12;29.05;;;12.60;;
22111;SDS011;11222;50.872;4.312;2023-04-24T08:09:38;20.73;;;11.50;;
22111;SDS011;11222;50.872;4.312;2023-04-24T08:12:03;21.45;;;12.05;;
22111;SDS011;11222;50.872;4.312;2023-04-24T08:14:29;26.48;;;11.25;;
22111;SDS011;11222;50.872;4.312;2023-04-24T08:16:55;20.08;;;10.55;;
22111;SDS011;11222;50.872;4.312;2023-04-24T08:19:21;21.15;;;11.77;;
22111;SDS011;11222;50.872;4.312;2023-04-24T08:21:47;19.92;;;9.73;;
22111;SDS011;11222;50.872;4.312;2023-04-24T08:24:12;17.50;;;9.15;;
22111;SDS011;11222;50.872;4.312;2023-04-24T08:26:38;20.95;;;10.05;;
22111;SDS011;11222;50.872;4.312;2023-04-24T08:29:04;18.67;;;9.63;;
22111;SDS011;11222;50.872;4.312;2023-04-24T08:31:31;19.05;;;9.80;;
22111;SDS011;11222;50.872;4.312;2023-04-24T08:33:57;21.95;;;9.93;;
22111;SDS011;11222;50.872;4.312;2023-04-24T08:36:24;16.45;;;9.30;;
22111;SDS011;11222;50.872;4.312;2023-04-24T08:38:51;14.23;;;8.32;;
22111;SDS011;11222;50.872;4.312;2023-04-24T08:41:16;18.33;;;8.38;;
22111;SDS011;11222;50.872;4.312;2023-04-24T08:43:45;16.23;;;7.95;;
22111;SDS011;11222;50.872;4.312;2023-04-24T08:46:11;13.30;;;6.90;;
22111;SDS011;11222;50.872;4.312;2023-04-24T08:48:38;14.05;;;7.38;;
22111;SDS011;11222;50.872;4.312;2023-04-24T08:51:06;12.70;;;6.57;;
22111;SDS011;11222;50.872;4.312;2023-04-24T08:53:33;14.88;;;6.35;;
22111;SDS011;11222;50.872;4.312;2023-04-24T08:55:59;12.38;;;6.38;;
22111;SDS011;11222;50.872;4.312;2023-04-24T08:58:26;9.73;;;5.90;;
22111;SDS011;11222;50.872;4.312;2023-04-24T09:00:56;10.40;;;5.97;;
22111;SDS011;11222;50.872;4.312;2023-04-24T09:03:23;11.40;;;6.63;;
22111;SDS011;11222;50.872;4.312;2023-04-24T09:05:49;12.85;;;6.35;;
22111;SDS011;11222;50.872;4.312;2023-04-24T09:08:17;11.73;;;6.05;;
22111;SDS011;11222;50.872;4.312;2023-04-24T09:10:44;11.23;;;6.07;;
22111;SDS011;11222;50.872;4.312;2023-04-24T09:13:10;13.23;;;5.70;;
22111;SDS011;11222;50.872;4.312;2023-04-24T09:15:37;9.10;;;5.28;;
22111;SDS011;11222;50.872;4.312;2023-04-24T09:18:03;9.57;;;5.30;;
22111;SDS011;11222;50.872;4.312;2023-04-24T09:20:29;7.72;;;5.15;;
22111;SDS011;11222;50.872;4.312;2023-04-24T09:22:59;8.63;;;5.43;;
22111;SDS011;11222;50.872;4.312;2023-04-24T09:25:30;9.10;;;5.10;;
22111;SDS011;11222;50.872;4.312;2023-04-24T09:28:00;10.00;;;5.20;;
22111;SDS011;11222;50.872;4.312;2023-04-24T09:30:27;14.00;;;6.05;;
22111;SDS011;11222;50.872;4.312;2023-04-24T09:38:13;15.20;;;5.85;;
22111;SDS011;11222;50.872;4.312;2023-04-24T09:40:39;9.02;;;5.55;;
22111;SDS011;11222;50.872;4.312;2023-04-24T09:43:05;12.30;;;5.60;;
22111;SDS011;11222;50.872;4.312;2023-04-24T09:45:36;8.27;;;4.85;;
22111;SDS011;11222;50.872;4.312;2023-04-24T09:48:05;10.07;;;5.65;;
22111;SDS011;11222;50.872;4.312;2023-04-24T09:50:35;11.40;;;5.38;;
22111;SDS011;11222;50.872;4.312;2023-04-24T09:53:04;9.80;;;5.38;;
22111;SDS011;11222;50.872;4.312;2023-04-24T09:55:33;11.90;;;5.30;;
22111;SDS011;11222;50.872;4.312;2023-04-24T09:58:06;17.70;;;4.63;;
22111;SDS011;11222;50.872;4.312;2023-04-24T10:00:33;14.98;;;5.43;;
22111;SDS011;11222;50.872;4.312;2023-04-24T10:02:59;11.75;;;5.28;;
22111;SDS011;11222;50.872;4.312;2023-04-24T10:05:30;8.82;;;5.22;;
22111;SDS011;11222;50.872;4.312;2023-04-24T10:07:57;10.15;;;4.97;;
22111;SDS011;11222;50.872;4.312;2023-04-24T10:10:26;8.48;;;5.05;;
22111;SDS011;11222;50.872;4.312;2023-04-24T10:12:51;9.20;;;4.90;;
22111;SDS011;11222;50.872;4.312;2023-04-24T10:15:18;11.85;;;5.38;;
22111;SDS011;11222;50.872;4.312;2023-04-24T10:17:49;10.35;;;4.88;;
22111;SDS011;11222;50.872;4.312;2023-04-24T10:20:23;12.73;;;5.30;;
22111;SDS011;11222;50.872;4.312;2023-04-24T10:22:51;10.05;;;5.22;;
22111;SDS011;11222;50.872;4.312;2023-04-24T10:25:19;10.20;;;5.75;;
22111;SDS011;11222;50.872;4.312;2023-04-24T10:27:46;10.23;;;5.10;;
22111;SDS011;11222;50.872;4.312;2023-04-24T10:30:13;12.23;;;5.55;;
22111;SDS011;11222;50.872;4.312;2023-04-24T10:32:39;7.25;;;5.30;;
22111;SDS011;11222;50.872;4.312;2023-04-24T10:35:08;6.60;;;4.93;;
22111;SDS011;11222;50.872;4.312;2023-04-24T10:37:36;10.07;;;5.22;;
22111;SDS011;11222;50.872;4.312;2023-04-24T10:40:05;7.90;;;4.85;;
22111;SDS011;11222;50.872;4.312;2023-04-24T10:42:32;8.68;;;5.18;;
22111;SDS011;11222;50.872;4.312;2023-04-24T10:44:58;9.18;;;5.35;;
22111;SDS011;11222;50.872;4.312;2023-04-24T10:47:27;10.43;;;5.22;;
22111;SDS011;11222;50.872;4.312;2023-04-24T10:49:52;8.70;;;5.07;;
22111;SDS011;11222;50.872;4.312;2023-04-24T10:52:18;10.73;;;5.57;;
22111;SDS011;11222;50.872;4.312;2023-04-24T10:54:45;9.43;;;5.45;;
22111;SDS011;11222;50.872;4.312;2023-04-24T10:59:48;11.73;;;5.68;;
22111;SDS011;11222;50.872;4.312;2023-04-24T11:02:17;10.50;;;5.88;;
22111;SDS011;11222;50.872;4.312;2023-04-24T11:04:43;11.38;;;5.78;;
22111;SDS011;11222;50.872;4.312;2023-04-24T11:07:10;9.38;;;6.10;;
22111;SDS011;11222;50.872;4.312;2023-04-24T11:09:36;11.32;;;6.45;;
22111;SDS011;11222;50.872;4.312;2023-04-24T11:12:06;10.48;;;5.75;;
22111;SDS011;11222;50.872;4.312;2023-04-24T11:17:32;10.95;;;5.90;;
22111;SDS011;11222;50.872;4.312;2023-04-24T11:20:06;10.17;;;5.40;;
22111;SDS011;11222;50.872;4.312;2023-04-24T11:22:34;8.85;;;5.22;;
22111;SDS011;11222;50.872;4.312;2023-04-24T11:25:02;16.08;;;6.20;;
22111;SDS011;11222;50.872;4.312;2023-04-24T11:27:32;8.80;;;5.45;;
22111;SDS011;11222;50.872;4.312;2023-04-24T11:30:05;9.63;;;5.88;;
22111;SDS011;11222;50.872;4.312;2023-04-24T11:35:20;9.38;;;5.90;;
22111;SDS011;11222;50.872;4.312;2023-04-24T11:37:50;10.15;;;6.05;;
22111;SDS011;11222;50.872;4.312;2023-04-24T11:40:19;9.15;;;6.03;;
22111;SDS011;11222;50.872;4.312;2023-04-24T11:42:46;10.98;;;6.13;;
22111;SDS011;11222;50.872;4.312;2023-04-24T11:45:23;10.07;;;6.35;;
22111;SDS011;11222;50.872;4.312;2023-04-24T11:47:51;8.32;;;6.38;;
22111;SDS011;11222;50.872;4.312;2023-04-24T11:50:17;10.40;;;6.25;;
22111;SDS011;11222;50.872;4.312;2023-04-24T11:52:45;10.35;;;6.75;;
22111;SDS011;11222;50.872;4.312;2023-04-24T11:57:44;11.38;;;7.00;;
22111;SDS011;11222;50.872;4.312;2023-04-24T12:00:18;10.07;;;6.80;;
22111;SDS011;11222;50.872;4.312;2023-04-24T12:02:45;9.90;;;6.18;;
22111;SDS011;11222;50.872;4.312;2023-04-24T12:05:21;10.00;;;5.65;;
22111;SDS011;11222;50.872;4.312;2023-04-24T12:07:52;8.57;;;6.15;;
22111;SDS011;11222;50.872;4.312;2023-04-24T12:10:25;7.55;;;5.90;;
22111;SDS011;11222;50.872;4.312;2023-04-24T12:12:53;9.68;;;6.10;;
22111;SDS011;11222;50.872;4.312;2023-04-24T12:15:20;9.75;;;6.03;;
22111;SDS011;11222;50.872;4.312;2023-04-24T12:17:50;8.25;;;6.10;;
22111;SDS011;11222;50.872;4.312;2023-04-24T12:20:17;5.85;;;5.18;;
22111;SDS011;11222;50.872;4.312;2023-04-24T12:22:56;8.23;;;5.50;;
22111;SDS011;11222;50.872;4.312;2023-04-24T12:25:23;6.55;;;4.93;;
22111;SDS011;11222;50.872;4.312;2023-04-24T12:30:28;8.35;;;5.20;;
22111;SDS011;11222;50.872;4.312;2023-04-24T12:32:57;9.82;;;5.40;;
22111;SDS011;11222;50.872;4.312;2023-04-24T12:35:25;8.05;;;5.18;;
22111;SDS011;11222;50.872;4.312;2023-04-24T12:37:52;9.63;;;5.63;;
22111;SDS011;11222;50.872;4.312;2023-04-24T12:40:18;7.93;;;5.40;;
22111;SDS011;11222;50.872;4.312;2023-04-24T12:42:46;6.88;;;5.03;;
22111;SDS011;11222;50.872;4.312;2023-04-24T12:45:14;8.80;;;5.25;;
22111;SDS011;11222;50.872;4.312;2023-04-24T12:47:41;7.95;;;4.90;;
22111;SDS011;11222;50.872;4.312;2023-04-24T12:50:07;7.30;;;5.30;;
22111;SDS011;11222;50.872;4.312;2023-04-24T12:52:34;6.60;;;5.00;;
22111;SDS011;11222;50.872;4.312;2023-04-24T12:55:00;8.63;;;6.30;;
22111;SDS011;11222;50.872;4.312;2023-04-24T12:57:27;9.55;;;5.35;;
22111;SDS011;11222;50.872;4.312;2023-04-24T12:59:54;7.22;;;4.72;;
22111;SDS011;11222;50.872;4.312;2023-04-24T13:02:22;10.93;;;7.20;;
22111;SDS011;11222;50.872;4.312;2023-04-24T13:04:48;6.72;;;4.65;;
22111;SDS011;11222;50.872;4.312;2023-04-24T13:07:14;7.45;;;4.65;;
22111;SDS011;11222;50.872;4.312;2023-04-24T13:09:41;9.82;;;4.95;;
22111;SDS011;11222;50.872;4.312;2023-04-24T13:12:07;6.32;;;4.68;;
22111;SDS011;11222;50.872;4.312;2023-04-24T13:14:34;5.53;;;4.55;;
22111;SDS011;11222;50.872;4.312;2023-04-24T13:16:59;6.32;;;4.35;;
22111;SDS011;11222;50.872;4.312;2023-04-24T13:19:25;6.25;;;3.95;;
22111;SDS011;11222;50.872;4.312;2023-04-24T13:21:54;9.25;;;4.38;;
22111;SDS011;11222;50.872;4.312;2023-04-24T13:24:21;6.47;;;3.83;;
22111;SDS011;11222;50.872;4.312;2023-04-24T13:26:51;5.75;;;3.75;;
22111;SDS011;11222;50.872;4.312;2023-04-24T13:29:17;5.32;;;3.53;;
22111;SDS011;11222;50.872;4.312;2023-04-24T13:31:42;6.65;;;4.03;;
22111;SDS011;11222;50.872;4.312;2023-04-24T13:34:08;13.13;;;3.92;;
22111;SDS011;11222;50.872;4.312;2023-04-24T13:36:34;6.35;;;3.90;;
22111;SDS011;11222;50.872;4.312;2023-04-24T13:39:00;7.80;;;3.80;;
22111;SDS011;11222;50.872;4.312;2023-04-24T13:41:26;12.82;;;3.70;;
22111;SDS011;11222;50.872;4.312;2023-04-24T13:43:51;5.13;;;3.55;;
22111;SDS011;11222;50.872;4.312;2023-04-24T13:46:17;6.25;;;3.88;;
22111;SDS011;11222;50.872;4.312;2023-04-24T13:48:43;5.68;;;4.10;;
22111;SDS011;11222;50.872;4.312;2023-04-24T13:51:08;5.68;;;3.88;;
22111;SDS011;11222;50.872;4.312;2023-04-24T13:53:34;6.22;;;3.20;;
22111;SDS011;11222;50.872;4.312;2023-04-24T13:56:03;5.15;;;3.15;;
22111;SDS011;11222;50.872;4.312;2023-04-24T13:58:29;6.50;;;3.10;;
22111;SDS011;11222;50.872;4.312;2023-04-24T14:00:55;4.38;;;3.00;;
22111;SDS011;11222;50.872;4.312;2023-04-24T14:03:21;3.97;;;2.80;;
22111;SDS011;11222;50.872;4.312;2023-04-24T14:05:46;4.45;;;2.90;;
22111;SDS011;11222;50.872;4.312;2023-04-24T14:08:12;4.78;;;3.30;;
22111;SDS011;11222;50.872;4.312;2023-04-24T14:10:38;13.32;;;9.00;;
22111;SDS011;11222;50.872;4.312;2023-04-24T14:13:03;4.75;;;2.95;;
22111;SDS011;11222;50.872;4.312;2023-04-24T14:15:30;4.95;;;2.97;;
22111;SDS011;11222;50.872;4.312;2023-04-24T14:17:56;6.20;;;3.55;;
22111;SDS011;11222;50.872;4.312;2023-04-24T14:20:22;4.95;;;3.10;;
22111;SDS011;11222;50.872;4.312;2023-04-24T14:22:48;6.30;;;3.03;;
22111;SDS011;11222;50.872;4.312;2023-04-24T14:25:14;8.88;;;3.40;;
22111;SDS011;11222;50.872;4.312;2023-04-24T14:27:40;6.65;;;3.15;;
22111;SDS011;11222;50.872;4.312;2023-04-24T14:30:06;6.70;;;3.38;;
22111;SDS011;11222;50.872;4.312;2023-04-24T14:32:32;6.93;;;3.03;;
22111;SDS011;11222;50.872;4.312;2023-04-24T14:34:58;7.45;;;3.20;;
22111;SDS011;11222;50.872;4.312;2023-04-24T14:37:24;6.45;;;3.05;;
22111;SDS011;11222;50.872;4.312;2023-04-24T14:39:50;6.85;;;2.75;;
22111;SDS011;11222;50.872;4.312;2023-04-24T14:42:15;5.25;;;3.13;;
22111;SDS011;11222;50.872;4.312;2023-04-24T14:44:42;6.03;;;3.17;;
22111;SDS011;11222;50.872;4.312;2023-04-24T14:47:07;5.18;;;2.80;;